Time;durP1;ratioP1;P1;durP2;ratioP2;P2;SDS_P1;SDS_P2;PMS_P1;PMS_P2;Temp;Humidity;BMP_temperature;BMP_pressure;BME280_temperature;BME280_humidity;BME280_pressure;Samples;Min_cycle;Max_cycle;Signal;HPM_P1;HPM_P2
2023/12/17 00:00:03;;;;;;;;;;;11.60;88.10;;;;;;5051656;28;20369;-80
2023/12/17 00:02:29;;;;;;;;;;;11.60;88.10;;;;;;5053464;28;19932;-80
2023/12/17 00:04:54;;;;;;;;;;;11.60;88.10;;;;;;5052374;28;19909;-79
2023/12/17 00:07:20;;;;;;;;;;;11.60;88.20;;;;;;5052177;28;19924;-79
2023/12/17 00:09:45;;;;;;;;;;;11.60;88.10;;;;;;5051792;28;19917;-80
2023/12/17 00:12:10;;;;;;;;;;;11.60;88.20;;;;;;5052193;28;19908;-79
2023/12/17 00:14:36;;;;;;;;;;;11.50;88.00;;;;;;5053331;28;20125;-79
2023/12/17 00:17:01;;;;;;;;;;;11.60;88.20;;;;;;5053179;28;19982;-79
2023/12/17 00:19:27;;;;;;;;;;;11.50;88.10;;;;;;5051718;28;20447;-80
2023/12/17 00:21:53;;;;;;;;;;;11.60;88.20;;;;;;5051831;28;20759;-79
2023/12/17 00:24:18;;;;;;;;;;;11.50;88.10;;;;;;5051819;28;19938;-79
2023/12/17 00:26:43;;;;;;;;;;;11.60;88.20;;;;;;5052864;28;19909;-80
2023/12/17 00:29:09;;;;;;;;;;;11.50;88.00;;;;;;5051579;28;19971;-80
2023/12/17 00:31:34;;;;;;;;;;;11.60;88.10;;;;;;5051889;28;19994;-79
2023/12/17 00:34:00;;;;;;;;;;;11.60;88.10;;;;;;5051736;28;19916;-79
2023/12/17 00:36:26;;;;;;;;;;;11.60;88.10;;;;;;5052846;28;19955;-79
2023/12/17 00:38:51;;;;;;;;;;;11.60;88.10;;;;;;5051466;28;19908;-80
2023/12/17 00:41:16;;;;;;;;;;;11.60;88.10;;;;;;5052524;28;19916;-80
2023/12/17 00:43:43;;;;;;;;;;;11.60;88.10;;;;;;5055148;28;20594;-79
2023/12/17 00:46:08;;;;;;;;;;;11.60;88.10;;;;;;5055378;28;19916;-79
2023/12/17 00:48:34;;;;;;;;;;;11.60;88.20;;;;;;5055418;28;20309;-79
2023/12/17 00:50:59;;;;;;;;;;;11.60;88.20;;;;;;5057014;28;20282;-80
2023/12/17 00:53:24;;;;;;;;;;;11.60;88.10;;;;;;5055419;28;19909;-80
2023/12/17 00:55:50;;;;;;;;;;;11.60;88.10;;;;;;5055586;28;20369;-80
2023/12/17 00:58:15;;;;;;;;;;;11.60;88.10;;;;;;5055433;28;19909;-78
2023/12/17 01:00:41;;;;;;;;;;;11.60;88.20;;;;;;5055881;28;19909;-80
2023/12/17 01:03:06;;;;;;;;;;;11.60;88.10;;;;;;5055431;28;19909;-80
2023/12/17 01:05:33;;;;;;;;;;;11.60;88.10;;;;;;5055513;28;19916;-79
2023/12/17 01:07:59;;;;;;;;;;;11.60;88.10;;;;;;5070751;28;19917;-79
2023/12/17 01:10:24;;;;;;;;;;;11.60;88.10;;;;;;5075937;28;19913;-80
2023/12/17 01:12:49;;;;;;;;;;;11.60;88.20;;;;;;5074777;28;19908;-79
2023/12/17 01:15:15;;;;;;;;;;;11.60;88.10;;;;;;5074882;28;19908;-80
2023/12/17 01:17:40;;;;;;;;;;;11.60;88.10;;;;;;5074710;28;19999;-80
2023/12/17 01:20:08;;;;;;;;;;;11.60;88.10;;;;;;5076076;28;19912;-79
2023/12/17 01:22:33;;;;;;;;;;;11.60;88.10;;;;;;5074973;28;19970;-79
2023/12/17 01:24:59;;;;;;;;;;;11.60;88.00;;;;;;5075991;28;20383;-81
2023/12/17 01:27:24;;;;;;;;;;;11.60;88.10;;;;;;5075043;28;19916;-79
2023/12/17 01:29:49;;;;;;;;;;;11.50;88.10;;;;;;5074967;28;19953;-81
2023/12/17 01:32:15;;;;;;;;;;;11.60;88.10;;;;;;5074683;28;19909;-80
2023/12/17 01:34:40;;;;;;;;;;;11.60;88.20;;;;;;5074862;28;19909;-80
2023/12/17 01:37:06;;;;;;;;;;;11.50;88.10;;;;;;5074824;28;19915;-79
2023/12/17 01:39:31;;;;;;;;;;;11.50;88.10;;;;;;5076108;28;20434;-80
2023/12/17 01:41:56;;;;;;;;;;;11.60;88.10;;;;;;5074964;28;19908;-79
2023/12/17 01:44:22;;;;;;;;;;;11.60;88.10;;;;;;5074452;28;19909;-79
2023/12/17 01:46:47;;;;;;;;;;;11.60;88.10;;;;;;5074608;28;19913;-79
2023/12/17 01:49:13;;;;;;;;;;;11.60;88.10;;;;;;5074349;28;19913;-80
2023/12/17 01:51:39;;;;;;;;;;;11.50;88.10;;;;;;5074882;28;20315;-80
2023/12/17 01:54:04;;;;;;;;;;;11.60;88.10;;;;;;5063200;28;19912;-80
2023/12/17 01:56:29;;;;;;;;;;;11.60;88.10;;;;;;5053669;28;19909;-80
2023/12/17 01:58:55;;;;;;;;;;;11.50;88.10;;;;;;5054177;28;19908;-79
2023/12/17 02:01:22;;;;;;;;;;;11.50;88.10;;;;;;5055909;28;19909;-79
2023/12/17 02:03:47;;;;;;;;;;;11.50;88.20;;;;;;5054397;28;19909;-79
2023/12/17 02:06:12;;;;;;;;;;;11.50;88.10;;;;;;5054367;28;19958;-79
2023/12/17 02:08:38;;;;;;;;;;;11.50;88.10;;;;;;5054094;28;19913;-79
2023/12/17 02:11:04;;;;;;;;;;;11.60;88.20;;;;;;5054202;28;20283;-80
2023/12/17 02:13:29;;;;;;;;;;;11.60;88.20;;;;;;5055302;28;19919;-79
2023/12/17 02:15:55;;;;;;;;;;;11.50;88.10;;;;;;5054029;28;19959;-80
2023/12/17 02:18:20;;;;;;;;;;;11.50;88.10;;;;;;5053659;28;20297;-79
2023/12/17 02:20:45;;;;;;;;;;;11.60;88.20;;;;;;5053941;28;19909;-79
2023/12/17 02:23:11;;;;;;;;;;;11.60;88.20;;;;;;5053907;28;19909;-79
2023/12/17 02:25:37;;;;;;;;;;;11.60;88.40;;;;;;5054012;28;20381;-80
2023/12/17 02:28:02;;;;;;;;;;;11.60;88.20;;;;;;5053753;28;20351;-79
2023/12/17 02:30:28;;;;;;;;;;;11.60;88.20;;;;;;5053975;28;19952;-80
2023/12/17 02:32:53;;;;;;;;;;;11.60;88.20;;;;;;5054031;28;19909;-80
2023/12/17 02:35:21;;;;;;;;;;;11.60;88.20;;;;;;5053780;28;19916;-80
2023/12/17 02:37:47;;;;;;;;;;;11.60;88.20;;;;;;5053655;28;19928;-80
2023/12/17 02:40:12;;;;;;;;;;;11.60;88.10;;;;;;5053469;28;19913;-79
2023/12/17 02:42:38;;;;;;;;;;;11.60;88.20;;;;;;5053773;28;19909;-79
2023/12/17 02:45:03;;;;;;;;;;;11.60;88.20;;;;;;5053472;28;19909;-80
2023/12/17 02:47:29;;;;;;;;;;;11.60;88.20;;;;;;5054627;28;19916;-80
2023/12/17 02:49:54;;;;;;;;;;;11.60;88.20;;;;;;5054881;28;20057;-80
2023/12/17 02:52:19;;;;;;;;;;;11.60;88.20;;;;;;5054759;28;19978;-80
2023/12/17 02:54:45;;;;;;;;;;;11.60;88.20;;;;;;5054007;28;19908;-79
2023/12/17 02:57:10;;;;;;;;;;;11.60;88.20;;;;;;5053612;28;20639;-80
2023/12/17 02:59:36;;;;;;;;;;;11.60;88.10;;;;;;5053447;28;20016;-79
2023/12/17 03:02:01;;;;;;;;;;;11.60;88.20;;;;;;5053902;28;19912;-80
2023/12/17 03:04:27;;;;;;;;;;;11.50;88.10;;;;;;5054023;28;19960;-79
2023/12/17 03:06:52;;;;;;;;;;;11.60;88.20;;;;;;5053242;28;19962;-80
2023/12/17 03:09:18;;;;;;;;;;;11.50;88.10;;;;;;5051774;28;19924;-80
2023/12/17 03:11:43;;;;;;;;;;;11.50;88.20;;;;;;5053151;28;20000;-78
2023/12/17 03:14:09;;;;;;;;;;;11.60;88.20;;;;;;5052915;28;19913;-80
2023/12/17 03:16:34;;;;;;;;;;;11.50;88.20;;;;;;5053064;28;19996;-79
2023/12/17 03:19:00;;;;;;;;;;;11.50;88.20;;;;;;5052621;28;20423;-79
2023/12/17 03:21:28;;;;;;;;;;;11.50;88.10;;;;;;5052728;28;19923;-79
2023/12/17 03:23:54;;;;;;;;;;;11.50;88.10;;;;;;5052544;28;19909;-80
2023/12/17 03:26:19;;;;;;;;;;;11.60;88.10;;;;;;5052408;28;19909;-80
2023/12/17 03:28:45;;;;;;;;;;;11.50;88.20;;;;;;5053134;28;20304;-80
2023/12/17 03:31:14;;;;;;;;;;;11.60;88.20;;;;;;5053650;28;20289;-80
2023/12/17 03:33:43;;;;;;;;;;;11.50;88.10;;;;;;5053563;28;19916;-80
2023/12/17 03:36:08;;;;;;;;;;;11.60;88.20;;;;;;5053326;28;20353;-81
2023/12/17 03:38:34;;;;;;;;;;;11.60;88.20;;;;;;5053008;28;19909;-81
2023/12/17 03:40:59;;;;;;;;;;;11.60;88.20;;;;;;5052756;28;20440;-80
2023/12/17 03:43:25;;;;;;;;;;;11.50;88.20;;;;;;5071857;28;19909;-81
2023/12/17 03:45:50;;;;;;;;;;;11.50;88.20;;;;;;5073586;28;19912;-80
2023/12/17 03:48:15;;;;;;;;;;;11.50;88.20;;;;;;5073231;28;19964;-79
2023/12/17 03:50:41;;;;;;;;;;;11.60;88.30;;;;;;5072366;28;19913;-81
2023/12/17 03:53:10;;;;;;;;;;;11.60;88.70;;;;;;5073503;28;19908;-80
2023/12/17 03:55:38;;;;;;;;;;;11.60;88.20;;;;;;5072212;28;19909;-81
2023/12/17 03:58:04;;;;;;;;;;;11.50;88.20;;;;;;5072388;28;19909;-81
2023/12/17 04:00:30;;;;;;;;;;;11.50;88.10;;;;;;5071904;28;19930;-80
2023/12/17 04:02:55;;;;;;;;;;;11.60;88.20;;;;;;5072147;28;19908;-79
2023/12/17 04:05:21;;;;;;;;;;;11.60;88.30;;;;;;5072913;28;20433;-80
2023/12/17 04:07:46;;;;;;;;;;;11.60;88.20;;;;;;5072538;28;19916;-79
2023/12/17 04:10:11;;;;;;;;;;;11.50;88.20;;;;;;5073771;28;20040;-79
2023/12/17 04:12:37;;;;;;;;;;;11.50;88.10;;;;;;5072645;28;20003;-81
2023/12/17 04:15:02;;;;;;;;;;;11.50;88.20;;;;;;5074096;28;19951;-81
2023/12/17 04:17:29;;;;;;;;;;;11.60;88.30;;;;;;5072483;28;19959;-79
2023/12/17 04:19:54;;;;;;;;;;;11.60;88.20;;;;;;5071603;28;20337;-79
2023/12/17 04:22:20;;;;;;;;;;;11.60;88.20;;;;;;5072087;28;19908;-79
2023/12/17 04:24:45;;;;;;;;;;;11.60;88.20;;;;;;5072150;28;19939;-79
2023/12/17 04:27:11;;;;;;;;;;;11.60;88.30;;;;;;5072035;28;20043;-80
2023/12/17 04:29:38;;;;;;;;;;;11.50;88.20;;;;;;5071162;28;22276;-80
2023/12/17 04:32:04;;;;;;;;;;;11.50;88.70;;;;;;5071671;28;19909;-81
2023/12/17 04:34:29;;;;;;;;;;;11.60;88.20;;;;;;5071493;28;20269;-82
2023/12/17 04:36:59;;;;;;;;;;;11.50;88.20;;;;;;5071632;28;19915;-79
2023/12/17 04:39:25;;;;;;;;;;;11.60;88.20;;;;;;5071511;28;20346;-80
2023/12/17 04:41:51;;;;;;;;;;;11.50;88.20;;;;;;5073145;28;20448;-79
2023/12/17 04:44:16;;;;;;;;;;;11.50;88.20;;;;;;5073024;28;19948;-80
2023/12/17 04:46:42;;;;;;;;;;;11.50;88.20;;;;;;5071680;28;20007;-79
2023/12/17 04:49:07;;;;;;;;;;;11.60;88.20;;;;;;5071902;28;20023;-81
2023/12/17 04:51:33;;;;;;;;;;;11.60;88.20;;;;;;5071864;28;19913;-78
2023/12/17 04:53:58;;;;;;;;;;;11.60;88.20;;;;;;5071889;28;19908;-78
2023/12/17 04:56:23;;;;;;;;;;;11.60;88.20;;;;;;5073179;28;19917;-80
2023/12/17 04:58:49;;;;;;;;;;;11.60;88.20;;;;;;5071636;28;19908;-78
2023/12/17 05:01:14;;;;;;;;;;;11.60;88.30;;;;;;5072064;28;19948;-81
2023/12/17 05:03:40;;;;;;;;;;;11.50;88.20;;;;;;5071957;28;20003;-80
2023/12/17 05:06:06;;;;;;;;;;;11.50;88.30;;;;;;5071936;28;20275;-82
2023/12/17 05:08:31;;;;;;;;;;;11.60;88.20;;;;;;5071968;28;19973;-79
2023/12/17 05:10:57;;;;;;;;;;;11.50;88.20;;;;;;5073197;28;19913;-79
2023/12/17 05:13:22;;;;;;;;;;;11.60;88.30;;;;;;5071977;28;19908;-79
2023/12/17 05:15:48;;;;;;;;;;;11.60;88.30;;;;;;5072226;28;19909;-79
2023/12/17 05:18:13;;;;;;;;;;;11.50;88.20;;;;;;5071651;28;19916;-77
2023/12/17 05:20:39;;;;;;;;;;;11.60;88.20;;;;;;5071904;28;19995;-79
2023/12/17 05:23:08;;;;;;;;;;;11.60;88.20;;;;;;5072000;28;20626;-80
2023/12/17 05:25:33;;;;;;;;;;;11.60;88.20;;;;;;5071502;28;19908;-80
2023/12/17 05:27:59;;;;;;;;;;;11.50;88.20;;;;;;5071424;28;19925;-81
2023/12/17 05:30:24;;;;;;;;;;;11.50;88.20;;;;;;5071743;28;19908;-81
2023/12/17 05:32:50;;;;;;;;;;;11.60;88.30;;;;;;5074597;28;19909;-80
2023/12/17 05:35:15;;;;;;;;;;;11.60;88.30;;;;;;5076520;28;19915;-80
2023/12/17 05:37:41;;;;;;;;;;;11.60;88.30;;;;;;5076739;28;19915;-80
2023/12/17 05:40:07;;;;;;;;;;;11.60;88.20;;;;;;5075353;28;19999;-80
2023/12/17 05:42:33;;;;;;;;;;;11.60;88.30;;;;;;5074426;28;19908;-81
2023/12/17 05:44:58;;;;;;;;;;;11.50;88.20;;;;;;5075051;28;20356;-79
2023/12/17 05:47:24;;;;;;;;;;;11.60;88.30;;;;;;5076359;28;19915;-79
2023/12/17 05:49:49;;;;;;;;;;;11.60;88.30;;;;;;5075003;28;20007;-79
2023/12/17 05:52:15;;;;;;;;;;;11.60;88.20;;;;;;5074809;28;19909;-80
2023/12/17 05:54:43;;;;;;;;;;;11.60;88.30;;;;;;5076230;28;19920;-80
2023/12/17 05:57:08;;;;;;;;;;;11.60;88.30;;;;;;5073006;28;19917;-80
2023/12/17 05:59:33;;;;;;;;;;;11.50;88.20;;;;;;5074425;28;20006;-80
2023/12/17 06:01:59;;;;;;;;;;;11.60;88.20;;;;;;5076273;28;19999;-80
2023/12/17 06:04:24;;;;;;;;;;;11.60;88.20;;;;;;5075851;28;19908;-80
2023/12/17 06:06:50;;;;;;;;;;;11.60;88.30;;;;;;5074362;28;19908;-79
2023/12/17 06:09:16;;;;;;;;;;;11.60;88.20;;;;;;5074074;28;19955;-79
2023/12/17 06:11:41;;;;;;;;;;;11.60;88.30;;;;;;5074325;28;20006;-80
2023/12/17 06:14:07;;;;;;;;;;;11.60;88.30;;;;;;5074420;28;20284;-80
2023/12/17 06:16:32;;;;;;;;;;;11.50;88.20;;;;;;5074168;28;19934;-79
2023/12/17 06:18:57;;;;;;;;;;;11.60;88.30;;;;;;5074224;28;19963;-79
2023/12/17 06:21:23;;;;;;;;;;;11.60;88.30;;;;;;5075741;28;19908;-78
2023/12/17 06:23:50;;;;;;;;;;;11.60;88.30;;;;;;5074131;28;19957;-79
2023/12/17 06:26:18;;;;;;;;;;;11.60;88.30;;;;;;5075721;28;20380;-80
2023/12/17 06:28:43;;;;;;;;;;;11.60;88.30;;;;;;5074207;28;20327;-79
2023/12/17 06:31:09;;;;;;;;;;;11.50;88.20;;;;;;5074098;28;19908;-82
2023/12/17 06:33:34;;;;;;;;;;;11.60;88.30;;;;;;5073892;28;19915;-80
2023/12/17 06:35:59;;;;;;;;;;;11.60;88.30;;;;;;5074041;28;19973;-79
2023/12/17 06:38:25;;;;;;;;;;;11.60;88.30;;;;;;5073820;28;19908;-79
2023/12/17 06:40:53;;;;;;;;;;;11.60;88.40;;;;;;5071349;28;19940;-80
2023/12/17 06:43:18;;;;;;;;;;;11.60;88.30;;;;;;5073452;28;19920;-80
2023/12/17 06:45:44;;;;;;;;;;;11.60;88.30;;;;;;5077489;28;19908;-80
2023/12/17 06:48:09;;;;;;;;;;;11.60;88.30;;;;;;5074839;28;19908;-79
2023/12/17 06:50:35;;;;;;;;;;;11.60;88.30;;;;;;5075294;28;19909;-81
2023/12/17 06:53:00;;;;;;;;;;;11.60;88.30;;;;;;5073511;28;19948;-80
2023/12/17 06:55:26;;;;;;;;;;;11.60;88.30;;;;;;5073693;28;19908;-81
2023/12/17 06:57:51;;;;;;;;;;;11.50;88.30;;;;;;5073710;28;20292;-80
2023/12/17 07:00:17;;;;;;;;;;;11.60;88.30;;;;;;5073692;28;20365;-80
2023/12/17 07:02:42;;;;;;;;;;;11.60;88.40;;;;;;5073455;28;19913;-80
2023/12/17 07:05:08;;;;;;;;;;;11.60;88.30;;;;;;5073316;28;19917;-79
2023/12/17 07:07:34;;;;;;;;;;;11.60;88.30;;;;;;5073487;28;19909;-81
2023/12/17 07:09:59;;;;;;;;;;;11.60;88.30;;;;;;5073169;28;20254;-80
2023/12/17 07:12:25;;;;;;;;;;;11.60;88.30;;;;;;5073064;28;19916;-79
2023/12/17 07:14:50;;;;;;;;;;;11.60;88.30;;;;;;5072968;28;19958;-80
2023/12/17 07:17:15;;;;;;;;;;;11.60;88.30;;;;;;5073035;28;19961;-78
2023/12/17 07:19:41;;;;;;;;;;;11.60;88.40;;;;;;5074152;28;19913;-79
2023/12/17 07:22:06;;;;;;;;;;;11.60;88.40;;;;;;5073202;28;20390;-78
2023/12/17 07:24:32;;;;;;;;;;;11.60;88.40;;;;;;5072882;28;19912;-80
2023/12/17 07:26:57;;;;;;;;;;;11.60;88.30;;;;;;5074121;28;19958;-80
2023/12/17 07:29:22;;;;;;;;;;;11.60;88.30;;;;;;5072639;28;20295;-80
2023/12/17 07:31:48;;;;;;;;;;;11.50;88.30;;;;;;5072895;28;20456;-79
2023/12/17 07:34:13;;;;;;;;;;;11.50;88.30;;;;;;5072954;28;20399;-79
2023/12/17 07:36:39;;;;;;;;;;;11.60;88.40;;;;;;5072966;28;19909;-80
2023/12/17 07:39:05;;;;;;;;;;;11.60;88.30;;;;;;5072709;28;19958;-80
2023/12/17 07:41:30;;;;;;;;;;;11.50;88.30;;;;;;5072867;28;20050;-79
2023/12/17 07:43:56;;;;;;;;;;;11.50;88.40;;;;;;5072402;28;20257;-79
2023/12/17 07:46:21;;;;;;;;;;;11.50;88.40;;;;;;5072584;28;19909;-80
2023/12/17 07:48:46;;;;;;;;;;;11.50;88.40;;;;;;5072592;28;19974;-80
2023/12/17 07:51:12;;;;;;;;;;;11.50;88.30;;;;;;5072530;28;19939;-80
2023/12/17 07:53:37;;;;;;;;;;;11.60;88.30;;;;;;5072482;28;19958;-80
2023/12/17 07:56:03;;;;;;;;;;;11.50;88.30;;;;;;5072480;28;19908;-80
2023/12/17 07:58:31;;;;;;;;;;;11.60;88.30;;;;;;5072392;28;19988;-80
2023/12/17 08:00:58;;;;;;;;;;;11.60;88.30;;;;;;5072815;28;19909;-80
2023/12/17 08:03:23;;;;;;;;;;;11.60;88.40;;;;;;5072523;28;20292;-79
2023/12/17 08:05:49;;;;;;;;;;;11.60;88.40;;;;;;5073750;28;19916;-78
2023/12/17 08:08:15;;;;;;;;;;;11.50;88.30;;;;;;5072232;28;19974;-78
2023/12/17 08:10:40;;;;;;;;;;;11.60;88.40;;;;;;5072126;28;19909;-79
2023/12/17 08:13:06;;;;;;;;;;;11.60;88.40;;;;;;5072009;28;19908;-79
2023/12/17 08:15:31;;;;;;;;;;;11.60;88.40;;;;;;5073781;28;19916;-79
2023/12/17 08:17:57;;;;;;;;;;;11.60;88.40;;;;;;5072282;28;19920;-80
2023/12/17 08:20:22;;;;;;;;;;;11.60;88.30;;;;;;5073178;28;19912;-81
2023/12/17 08:22:48;;;;;;;;;;;11.60;88.30;;;;;;5073854;28;19909;-80
2023/12/17 08:25:13;;;;;;;;;;;11.60;88.40;;;;;;5071910;28;19913;-80
2023/12/17 08:27:38;;;;;;;;;;;11.60;88.40;;;;;;5072565;28;19926;-80
2023/12/17 08:30:04;;;;;;;;;;;11.60;88.40;;;;;;5070073;28;20586;-81
2023/12/17 08:32:32;;;;;;;;;;;11.60;88.30;;;;;;5069750;28;19930;-80
2023/12/17 08:34:59;;;;;;;;;;;11.60;88.30;;;;;;5064235;28;19962;-80
2023/12/17 08:37:29;;;;;;;;;;;11.60;88.30;;;;;;5071738;28;19919;-80
2023/12/17 08:39:55;;;;;;;;;;;11.60;88.30;;;;;;5073390;28;19960;-81
2023/12/17 08:42:20;;;;;;;;;;;11.60;88.30;;;;;;5072318;28;20424;-79
2023/12/17 08:44:46;;;;;;;;;;;11.60;88.40;;;;;;5074062;28;19912;-81
2023/12/17 08:47:12;;;;;;;;;;;11.60;88.40;;;;;;5072401;28;19908;-80
2023/12/17 08:49:37;;;;;;;;;;;11.60;88.40;;;;;;5071755;28;19919;-80
2023/12/17 08:52:03;;;;;;;;;;;11.50;88.30;;;;;;5073207;28;19921;-80
2023/12/17 08:54:28;;;;;;;;;;;11.60;88.40;;;;;;5073173;28;20705;-78
2023/12/17 08:56:54;;;;;;;;;;;11.60;88.30;;;;;;5072120;28;20818;-82
2023/12/17 08:59:19;;;;;;;;;;;11.60;88.40;;;;;;5072352;28;20424;-80
2023/12/17 09:01:45;;;;;;;;;;;11.50;88.40;;;;;;5071333;28;19908;-78
2023/12/17 09:04:10;;;;;;;;;;;11.60;88.40;;;;;;5073719;28;19913;-79
2023/12/17 09:06:43;;;;;;;;;;;11.60;88.30;;;;;;5073663;28;20272;-80
2023/12/17 09:09:08;;;;;;;;;;;11.60;88.40;;;;;;5076180;28;19916;-80
2023/12/17 09:11:34;;;;;;;;;;;11.60;88.30;;;;;;5077608;28;20613;-80
2023/12/17 09:13:59;;;;;;;;;;;11.60;88.40;;;;;;5074801;28;19915;-81
2023/12/17 09:16:25;;;;;;;;;;;11.60;88.30;;;;;;5075256;28;19915;-80
2023/12/17 09:18:50;;;;;;;;;;;11.60;88.30;;;;;;5074982;28;19908;-78
2023/12/17 09:21:16;;;;;;;;;;;11.60;88.30;;;;;;5075002;28;19916;-81
2023/12/17 09:23:41;;;;;;;;;;;11.60;88.30;;;;;;5074991;28;19923;-79
2023/12/17 09:26:06;;;;;;;;;;;11.60;88.40;;;;;;5076468;28;20273;-83
2023/12/17 09:28:32;;;;;;;;;;;11.60;88.40;;;;;;5075455;28;20492;-81
2023/12/17 09:30:57;;;;;;;;;;;11.60;88.30;;;;;;5074926;28;19958;-80
2023/12/17 09:33:23;;;;;;;;;;;11.50;88.30;;;;;;5075749;28;19934;-81
2023/12/17 09:35:49;;;;;;;;;;;11.60;88.40;;;;;;5072675;28;20062;-80
2023/12/17 09:38:16;;;;;;;;;;;11.60;88.30;;;;;;5076084;28;19930;-81
2023/12/17 09:40:43;;;;;;;;;;;11.60;88.30;;;;;;5075577;28;19958;-81
2023/12/17 09:43:12;;;;;;;;;;;11.60;88.40;;;;;;5056036;28;19916;-80
2023/12/17 09:45:37;;;;;;;;;;;11.60;88.30;;;;;;5056561;28;19991;-82
2023/12/17 09:48:03;;;;;;;;;;;11.60;88.30;;;;;;5055491;28;19955;-79
2023/12/17 09:50:28;;;;;;;;;;;11.50;88.30;;;;;;5055437;28;19920;-79
2023/12/17 09:52:54;;;;;;;;;;;11.50;88.40;;;;;;5056709;28;19920;-80
2023/12/17 09:55:20;;;;;;;;;;;11.60;88.30;;;;;;5076851;28;19913;-83
2023/12/17 09:57:46;;;;;;;;;;;11.60;88.40;;;;;;5074577;28;19969;-79
2023/12/17 10:00:12;;;;;;;;;;;11.60;88.20;;;;;;5075511;28;19908;-81
2023/12/17 10:02:38;;;;;;;;;;;11.60;88.30;;;;;;5074587;28;20410;-80
2023/12/17 10:05:05;;;;;;;;;;;11.60;88.40;;;;;;5075260;28;19908;-81
2023/12/17 10:07:31;;;;;;;;;;;11.60;88.30;;;;;;5076282;28;19913;-81
2023/12/17 10:09:56;;;;;;;;;;;11.60;88.40;;;;;;5074328;28;19916;-80
2023/12/17 10:12:22;;;;;;;;;;;11.60;88.40;;;;;;5073841;28;19919;-79
2023/12/17 10:14:47;;;;;;;;;;;11.60;88.20;;;;;;5074558;28;20307;-81
2023/12/17 10:17:12;;;;;;;;;;;11.60;88.30;;;;;;5073552;28;19966;-82
2023/12/17 10:19:38;;;;;;;;;;;11.60;88.40;;;;;;5075274;28;19912;-79
2023/12/17 10:22:07;;;;;;;;;;;11.60;88.40;;;;;;5073622;28;19965;-80
2023/12/17 10:24:37;;;;;;;;;;;11.60;88.30;;;;;;5074244;28;19912;-83
2023/12/17 10:27:05;;;;;;;;;;;11.60;88.40;;;;;;5073390;28;19920;-79
2023/12/17 10:29:32;;;;;;;;;;;11.60;88.30;;;;;;5072004;28;19920;-79
2023/12/17 10:31:58;;;;;;;;;;;11.60;88.30;;;;;;5071217;28;20304;-78
2023/12/17 10:34:25;;;;;;;;;;;11.60;88.40;;;;;;5071133;28;19918;-78
2023/12/17 10:36:51;;;;;;;;;;;11.60;88.40;;;;;;5072919;28;19970;-80
2023/12/17 10:39:18;;;;;;;;;;;11.60;88.50;;;;;;5073533;28;19917;-79
2023/12/17 10:41:46;;;;;;;;;;;11.60;88.30;;;;;;5074209;28;19913;-81
2023/12/17 10:44:12;;;;;;;;;;;11.60;88.30;;;;;;5073346;28;19909;-79
2023/12/17 10:46:40;;;;;;;;;;;11.60;88.50;;;;;;5073746;28;19912;-81
2023/12/17 10:49:06;;;;;;;;;;;11.60;88.40;;;;;;5072571;28;19917;-79
2023/12/17 10:51:33;;;;;;;;;;;11.60;88.30;;;;;;5068951;28;19913;-80
2023/12/17 10:54:00;;;;;;;;;;;11.60;88.30;;;;;;5061245;28;19958;-80
2023/12/17 10:56:28;;;;;;;;;;;11.60;88.40;;;;;;5054062;28;19994;-80
2023/12/17 10:58:54;;;;;;;;;;;11.60;88.30;;;;;;5054002;28;19969;-81
2023/12/17 11:01:19;;;;;;;;;;;11.60;88.20;;;;;;5052368;28;19909;-78
2023/12/17 11:03:45;;;;;;;;;;;11.60;88.30;;;;;;5052593;28;19938;-79
2023/12/17 11:06:10;;;;;;;;;;;11.50;88.30;;;;;;5051336;28;20006;-79
2023/12/17 11:08:36;;;;;;;;;;;11.60;88.30;;;;;;5051909;28;19969;-79
2023/12/17 11:11:02;;;;;;;;;;;11.60;88.30;;;;;;5052471;28;19913;-79
2023/12/17 11:13:27;;;;;;;;;;;11.60;88.30;;;;;;5056499;28;19955;-80
2023/12/17 11:15:54;;;;;;;;;;;11.60;88.30;;;;;;5054183;28;19924;-81
2023/12/17 11:18:20;;;;;;;;;;;11.60;88.40;;;;;;5053027;28;19982;-79
2023/12/17 11:20:46;;;;;;;;;;;11.60;88.30;;;;;;5070613;28;20479;-81
2023/12/17 11:23:16;;;;;;;;;;;11.60;88.30;;;;;;5054621;28;19909;-80
2023/12/17 11:25:42;;;;;;;;;;;11.60;88.30;;;;;;5055604;28;19913;-79
2023/12/17 11:28:07;;;;;;;;;;;11.60;88.40;;;;;;5053685;28;20339;-79
2023/12/17 11:30:34;;;;;;;;;;;11.60;88.30;;;;;;5053252;28;19944;-79
2023/12/17 11:33:00;;;;;;;;;;;11.60;88.30;;;;;;5071784;28;19958;-79
2023/12/17 11:35:30;;;;;;;;;;;11.60;88.40;;;;;;5073300;28;20007;-82
2023/12/17 11:37:56;;;;;;;;;;;11.60;88.20;;;;;;5074909;28;20254;-81
2023/12/17 11:40:21;;;;;;;;;;;11.60;88.30;;;;;;5072717;28;19919;-81
2023/12/17 11:43:00;;;;;;;;;;;11.60;88.30;;;;;;5057806;28;20339;-82
2023/12/17 11:45:43;;;;;;;;;;;11.60;88.40;;;;;;5052463;28;19920;-79
2023/12/17 11:48:10;;;;;;;;;;;11.60;88.30;;;;;;5064370;28;19916;-81
2023/12/17 11:50:42;;;;;;;;;;;11.60;88.30;;;;;;5052783;28;19913;-81
2023/12/17 11:53:09;;;;;;;;;;;11.60;88.30;;;;;;5056045;28;19958;-80
2023/12/17 11:55:41;;;;;;;;;;;11.60;88.30;;;;;;5056780;28;20801;-80
2023/12/17 11:58:06;;;;;;;;;;;11.60;88.20;;;;;;5052352;28;19948;-82
2023/12/17 12:00:32;;;;;;;;;;;11.60;88.20;;;;;;5052303;28;20454;-79
2023/12/17 12:02:57;;;;;;;;;;;11.60;88.20;;;;;;5052534;28;19913;-78
2023/12/17 12:05:23;;;;;;;;;;;11.60;88.50;;;;;;5053286;28;19917;-80
2023/12/17 12:07:55;;;;;;;;;;;11.60;88.10;;;;;;5038216;28;19917;-77
2023/12/17 12:10:21;;;;;;;;;;;11.60;88.20;;;;;;5052309;28;20405;-79
2023/12/17 12:12:59;;;;;;;;;;;11.60;88.40;;;;;;5053172;28;19987;-83
2023/12/17 12:15:24;;;;;;;;;;;11.60;88.20;;;;;;5053203;28;19971;-81
2023/12/17 12:17:49;;;;;;;;;;;11.60;88.10;;;;;;5053658;28;19964;-79
2023/12/17 12:20:15;;;;;;;;;;;11.60;88.20;;;;;;5053564;28;19920;-79
2023/12/17 12:22:45;;;;;;;;;;;11.60;88.20;;;;;;5054233;28;19920;-82
2023/12/17 12:25:12;;;;;;;;;;;11.60;88.70;;;;;;5053723;28;19909;-81
2023/12/17 12:27:37;;;;;;;;;;;11.60;88.30;;;;;;5053555;28;20025;-79
2023/12/17 12:30:03;;;;;;;;;;;11.60;88.40;;;;;;5053221;28;20645;-81
2023/12/17 12:32:32;;;;;;;;;;;11.60;88.20;;;;;;5053305;28;20277;-81
2023/12/17 12:34:58;;;;;;;;;;;11.60;88.20;;;;;;5053551;28;19920;-79
2023/12/17 12:37:33;;;;;;;;;;;11.60;88.20;;;;;;5057603;28;20308;-80
2023/12/17 12:39:59;;;;;;;;;;;11.60;88.50;;;;;;5068130;28;20295;-80
2023/12/17 12:42:24;;;;;;;;;;;11.60;88.30;;;;;;5068982;28;20003;-79
2023/12/17 12:44:50;;;;;;;;;;;11.60;88.40;;;;;;5052185;28;19913;-81
2023/12/17 12:47:15;;;;;;;;;;;11.60;88.20;;;;;;5052437;28;19913;-79
2023/12/17 12:49:44;;;;;;;;;;;11.60;88.20;;;;;;5055491;28;19959;-80
2023/12/17 12:52:10;;;;;;;;;;;11.60;88.40;;;;;;5055989;28;20451;-78
2023/12/17 12:54:35;;;;;;;;;;;11.60;88.10;;;;;;5051166;28;19913;-78
2023/12/17 12:57:01;;;;;;;;;;;11.60;88.20;;;;;;5051115;28;19962;-78
2023/12/17 12:59:26;;;;;;;;;;;11.60;88.20;;;;;;5050717;28;19912;-79
2023/12/17 13:01:53;;;;;;;;;;;11.60;88.30;;;;;;5050902;28;19916;-78
2023/12/17 13:04:19;;;;;;;;;;;11.60;88.30;;;;;;5050731;28;19934;-79
2023/12/17 13:06:44;;;;;;;;;;;11.60;88.40;;;;;;5050655;28;19909;-78
2023/12/17 13:09:11;;;;;;;;;;;11.60;88.20;;;;;;5050068;28;19931;-78
2023/12/17 13:11:36;;;;;;;;;;;11.60;88.20;;;;;;5051800;28;19934;-78
2023/12/17 13:14:03;;;;;;;;;;;11.60;88.20;;;;;;5050934;28;20417;-78
2023/12/17 13:16:29;;;;;;;;;;;11.60;88.30;;;;;;5050300;28;19916;-79
2023/12/17 13:18:55;;;;;;;;;;;11.60;88.10;;;;;;5051145;28;19908;-80
2023/12/17 13:21:20;;;;;;;;;;;11.60;88.20;;;;;;5050943;28;19913;-78
2023/12/17 13:23:49;;;;;;;;;;;11.60;88.40;;;;;;5052260;28;19919;-77
2023/12/17 13:26:15;;;;;;;;;;;11.60;88.20;;;;;;5049515;28;19982;-78
2023/12/17 13:28:41;;;;;;;;;;;11.60;88.20;;;;;;5050720;28;19966;-79
2023/12/17 13:31:07;;;;;;;;;;;11.70;88.40;;;;;;5051253;28;20578;-80
2023/12/17 13:33:32;;;;;;;;;;;11.60;88.20;;;;;;5050201;28;20369;-78
2023/12/17 13:35:58;;;;;;;;;;;11.60;88.10;;;;;;5050098;28;19913;-77
2023/12/17 13:38:23;;;;;;;;;;;11.60;88.30;;;;;;5051216;28;19962;-78
2023/12/17 13:40:49;;;;;;;;;;;11.60;88.20;;;;;;5051767;28;20004;-78
2023/12/17 13:43:15;;;;;;;;;;;11.60;88.20;;;;;;5050544;28;19976;-78
2023/12/17 13:45:40;;;;;;;;;;;11.60;88.40;;;;;;5064087;28;19913;-77
2023/12/17 13:48:06;;;;;;;;;;;11.60;88.20;;;;;;5069931;28;20346;-78
2023/12/17 13:50:31;;;;;;;;;;;11.60;88.40;;;;;;5070115;28;19967;-77
2023/12/17 13:52:57;;;;;;;;;;;11.60;88.20;;;;;;5071510;28;19951;-77
2023/12/17 13:55:24;;;;;;;;;;;11.60;88.20;;;;;;5073986;28;19912;-77
2023/12/17 13:57:49;;;;;;;;;;;11.60;88.20;;;;;;5073715;28;19919;-78
2023/12/17 14:00:15;;;;;;;;;;;11.60;88.30;;;;;;5073536;28;19913;-78
2023/12/17 14:02:40;;;;;;;;;;;11.60;88.30;;;;;;5073613;28;20472;-78
2023/12/17 14:05:06;;;;;;;;;;;11.60;88.10;;;;;;5073083;28;20422;-78
2023/12/17 14:07:31;;;;;;;;;;;11.60;88.20;;;;;;5074546;28;19909;-78